createdAt,value
2019-03-16T00:00:25.914Z,0.4
2019-03-16T00:10:28.037Z,0.6
2019-03-16T00:20:29.124Z,0.3
2019-03-16T00:30:28.980Z,0.4
2019-03-16T00:40:28.652Z,0.3
2019-03-16T00:50:28.052Z,0.5
2019-03-16T01:00:27.664Z,0.2
2019-03-16T01:10:27.042Z,0.7
2019-03-16T01:20:26.596Z,0.4
2019-03-16T01:30:26.204Z,0.3
2019-03-16T01:40:25.705Z,0.1
2019-03-16T01:50:25.247Z,0.5
2019-03-16T02:00:24.701Z,0.2
2019-03-16T02:10:26.428Z,0.2
2019-03-16T02:20:40.302Z,0.7
2019-03-16T02:30:42.898Z,0.1
2019-03-16T02:40:44.564Z,0.2
2019-03-16T02:50:44.235Z,0.6
2019-03-16T03:00:44.113Z,0.5
2019-03-16T03:11:00.893Z,0.4
2019-03-16T03:21:00.640Z,0.3
2019-03-16T03:31:00.868Z,0.3
2019-03-16T03:41:34.105Z,0.3
2019-03-16T03:51:34.107Z,0.3
2019-03-16T04:01:34.487Z,0.4
2019-03-16T04:11:51.580Z,0.2
2019-03-16T04:21:51.326Z,0.3
2019-03-16T04:31:50.953Z,0.4
2019-03-16T04:42:00.459Z,0.7
2019-03-16T04:52:02.173Z,0.6
2019-03-16T05:02:01.563Z,0.2
2019-03-16T05:12:13.500Z,0.3
2019-03-16T05:22:13.003Z,0.7
2019-03-16T05:32:12.495Z,0.9
2019-03-16T05:42:27.085Z,0.1
2019-03-16T05:52:28.757Z,1.3
2019-03-16T06:02:28.127Z,0.3
2019-03-16T06:12:41.950Z,0.6
2019-03-16T06:22:44.082Z,0.5
2019-03-16T06:32:43.534Z,0.5
2019-03-16T06:42:59.631Z,0.4
2019-03-16T06:52:59.065Z,0.5
2019-03-16T07:02:58.796Z,0.9
2019-03-16T07:13:09.433Z,1
2019-03-16T07:23:09.233Z,0.6
2019-03-16T07:33:08.848Z,0.7
2019-03-16T07:43:08.386Z,0.6
2019-03-16T07:53:09.966Z,0.8
2019-03-16T08:03:12.836Z,0.5
2019-03-16T08:13:17.110Z,0.6
2019-03-16T08:23:16.780Z,0.6
2019-03-16T08:33:27.914Z,0.6
2019-03-16T08:43:31.339Z,0.8
2019-03-16T08:53:33.493Z,0.6
2019-03-16T09:03:44.275Z,0.2
2019-03-16T09:13:44.244Z,0.4
2019-03-16T09:23:44.160Z,0.2
2019-03-16T09:33:51.622Z,0.7
2019-03-16T09:43:51.569Z,0.6
2019-03-16T09:53:51.226Z,1
2019-03-16T10:04:02.386Z,0.7
2019-03-16T10:14:01.803Z,0.8
2019-03-16T10:24:01.611Z,0.8
2019-03-16T10:34:14.863Z,0.3
2019-03-16T10:44:14.683Z,0.4
2019-03-16T10:54:14.420Z,0.7
2019-03-16T11:04:27.603Z,1.1
2019-03-16T11:14:27.129Z,0.7
2019-03-16T11:24:26.571Z,1.3
2019-03-16T11:34:39.636Z,0.6
2019-03-16T11:44:40.389Z,1.1
2019-03-16T11:54:39.943Z,1.4
2019-03-16T12:04:53.016Z,0.9
2019-03-16T12:14:53.323Z,1
2019-03-16T12:24:53.098Z,0.6
2019-03-16T12:35:06.149Z,0.9
2019-03-16T12:45:06.643Z,0.6
2019-03-16T12:55:10.043Z,1.4
2019-03-16T13:05:21.515Z,1.1
2019-03-16T13:15:21.604Z,2.8
2019-03-16T13:25:21.622Z,1.1
2019-03-16T13:35:30.886Z,1.1
2019-03-16T13:45:32.210Z,1.3
2019-03-16T13:55:38.082Z,0.6
2019-03-16T14:05:47.142Z,0.7
2019-03-16T14:15:48.258Z,0.9
2019-03-16T14:25:48.376Z,0.7
2019-03-16T14:36:17.426Z,0.9
2019-03-16T14:46:20.514Z,1
2019-03-16T14:56:20.257Z,1
2019-03-16T15:06:20.171Z,1.1
2019-03-16T15:16:20.878Z,1.1
2019-03-16T15:26:24.198Z,1
2019-03-16T15:36:28.962Z,1.2
2019-03-16T15:46:28.652Z,0.9
2019-03-16T15:56:29.382Z,1.1
2019-03-16T16:06:40.414Z,1.1
2019-03-16T16:16:41.730Z,1.2
2019-03-16T16:26:41.487Z,1.5
2019-03-16T16:36:47.521Z,7
2019-03-16T16:46:47.377Z,3.5
2019-03-16T16:56:47.177Z,2.3
2019-03-16T17:07:00.477Z,4.3
2019-03-16T17:17:00.039Z,2.5
2019-03-16T17:27:08.441Z,1.5
2019-03-16T17:37:16.479Z,1.5
2019-03-16T17:47:17.228Z,3.6
2019-03-16T17:57:18.347Z,3.4
2019-03-16T18:07:26.427Z,3.8
2019-03-16T18:17:26.074Z,8.2
2019-03-16T18:27:25.721Z,5.7
2019-03-16T18:37:42.453Z,4.6
2019-03-16T18:47:42.066Z,5.1
2019-03-16T18:57:41.833Z,4
2019-03-16T19:07:51.778Z,3.7
2019-03-16T19:17:59.659Z,3.1
2019-03-16T19:28:01.306Z,6.7
2019-03-16T19:38:08.355Z,3.3
2019-03-16T19:48:07.928Z,2.6
2019-03-16T19:58:07.568Z,2
2019-03-16T20:08:22.139Z,2.6
2019-03-16T20:18:24.200Z,4.9
2019-03-16T20:28:23.665Z,3
2019-03-16T20:38:35.271Z,4.3
2019-03-16T20:48:36.516Z,9.9
2019-03-16T20:58:36.227Z,3
2019-03-16T21:09:03.870Z,1.8
2019-03-16T21:19:03.634Z,1.6
2019-03-16T21:29:26.646Z,1.8
2019-03-16T21:39:26.207Z,2.1
2019-03-16T21:49:31.399Z,2.1
2019-03-16T21:59:34.034Z,2
2019-03-16T22:09:33.528Z,1.7
2019-03-16T22:19:35.894Z,1.6
2019-03-16T22:29:37.023Z,1.6
2019-03-16T22:39:39.852Z,1.4
2019-03-16T22:49:39.456Z,1.4
2019-03-16T22:59:38.899Z,1.2
2019-03-16T23:09:38.364Z,1.7
2019-03-16T23:19:37.951Z,1.8
2019-03-16T23:29:37.547Z,1.6
2019-03-16T23:39:50.099Z,1.4
2019-03-16T23:49:49.599Z,1.3
2019-03-16T23:59:49.057Z,1.5
